Time;durP1;ratioP1;P1;durP2;ratioP2;P2;SDS_P1;SDS_P2;PMS_P1;PMS_P2;Temp;Humidity;BMP_temperature;BMP_pressure;BME280_temperature;BME280_humidity;BME280_pressure;Samples;Min_cycle;Max_cycle;Signal;HPM_P1;HPM_P2
2022/08/03 00:01:41;;;;;;;1887.25;999.90;;;19.30;99.90;;;;;;4901828;29;20055;-80
2022/08/03 00:04:08;;;;;;;1770.30;999.90;;;19.30;99.90;;;;;;4918041;29;20052;-80
2022/08/03 00:06:34;;;;;;;1788.32;999.90;;;19.30;99.90;;;;;;4900695;29;20442;-81
2022/08/03 00:09:00;;;;;;;1905.43;999.90;;;19.30;99.90;;;;;;4900127;29;20108;-81
2022/08/03 00:11:26;;;;;;;1532.85;999.90;;;19.30;99.90;;;;;;4915860;29;20040;-82
2022/08/03 00:13:52;;;;;;;1982.40;999.90;;;19.30;99.90;;;;;;4916722;29;20490;-80
2022/08/03 00:16:19;;;;;;;1944.85;999.90;;;19.30;63.70;;;;;;4899728;29;20486;-81
2022/08/03 00:18:44;;;;;;;1846.57;999.90;;;19.30;82.30;;;;;;4916900;29;20052;-81
2022/08/03 00:21:11;;;;;;;1999.90;999.90;;;19.30;91.50;;;;;;4916551;29;20052;-84
2022/08/03 00:23:37;;;;;;;1945.22;999.90;;;19.30;55.40;;;;;;4883973;29;20055;-81
2022/08/03 00:26:03;;;;;;;1834.60;999.90;;;19.20;56.40;;;;;;4916857;29;20044;-81
2022/08/03 00:28:29;;;;;;;1800.05;999.90;;;19.20;11.00;;;;;;4916260;29;20054;-81
2022/08/03 00:30:54;;;;;;;1794.20;999.90;;;19.20;10.90;;;;;;4899985;29;20056;-81
2022/08/03 00:33:20;;;;;;;1878.07;999.90;;;19.20;87.50;;;;;;4916219;29;20094;-81
2022/08/03 00:35:46;;;;;;;1703.78;999.90;;;19.20;99.90;;;;;;4916516;29;20052;-80
2022/08/03 00:38:13;;;;;;;1852.20;999.90;;;19.20;99.90;;;;;;4915912;29;20564;-83
2022/08/03 00:40:39;;;;;;;1636.80;999.90;;;19.10;62.80;;;;;;4916734;29;20056;-80
2022/08/03 00:43:07;;;;;;;1723.20;999.90;;;19.10;49.90;;;;;;4916565;29;20083;-81
2022/08/03 00:45:36;;;;;;;1628.45;999.90;;;19.10;99.80;;;;;;4899387;29;20324;-81
2022/08/03 00:48:03;;;;;;;1730.20;999.90;;;19.00;46.80;;;;;;4916483;29;20107;-81
2022/08/03 00:50:30;;;;;;;1610.22;999.90;;;19.00;99.90;;;;;;4883975;29;20142;-81
2022/08/03 00:52:58;;;;;;;1678.32;999.90;;;19.10;99.90;;;;;;4916110;29;20417;-80
2022/08/03 00:55:24;;;;;;;;;;;19.10;99.90;;;;;;4899974;29;20051;-80
2022/08/03 00:57:50;;;;;;;1988.32;999.90;;;19.10;99.90;;;;;;4916225;29;19923;-80
2022/08/03 01:00:23;;;;;;;1775.75;999.90;;;19.10;99.90;;;;;;4899397;29;20052;-81
2022/08/03 01:02:49;;;;;;;1726.05;999.90;;;19.10;99.90;;;;;;4884112;29;20115;-80
2022/08/03 01:05:15;;;;;;;1591.53;999.90;;;19.20;99.90;;;;;;4916371;29;20079;-81
2022/08/03 01:07:55;;;;;;;1725.97;999.90;;;18.40;99.90;;;;;;4916063;29;20529;-80
2022/08/03 01:10:42;;;;;;;1731.97;999.90;;;19.10;99.90;;;;;;4899372;29;20090;-80
2022/08/03 01:13:20;;;;;;;1721.43;999.90;;;19.10;99.90;;;;;;4916304;29;20044;-80
2022/08/03 01:16:02;;;;;;;1639.00;999.90;;;19.10;99.90;;;;;;4916189;29;20048;-80
2022/08/03 01:18:45;;;;;;;1699.82;999.90;;;19.10;99.90;;;;;;4915557;29;20482;-80
2022/08/03 01:21:23;;;;;;;1861.18;999.90;;;19.00;99.90;;;;;;4916015;29;20525;-80
2022/08/03 01:23:48;;;;;;;1554.80;999.90;;;19.00;99.90;;;;;;4915880;29;20259;-80
2022/08/03 01:26:20;;;;;;;1690.32;999.90;;;19.10;99.90;;;;;;4899515;29;20087;-80
2022/08/03 01:29:26;;;;;;;1732.60;999.90;;;19.00;99.90;;;;;;4916070;29;20111;-81
2022/08/03 01:32:01;;;;;;;1783.35;999.90;;;19.00;99.90;;;;;;4917190;29;20051;-80
2022/08/03 01:34:45;;;;;;;1664.85;999.90;;;19.00;99.90;;;;;;4919527;29;20055;-81
2022/08/03 01:37:19;;;;;;;1678.40;999.90;;;19.00;99.90;;;;;;4918808;29;20520;-81
2022/08/03 01:39:45;;;;;;;1624.60;999.90;;;19.00;99.90;;;;;;4919630;29;20051;-80
2022/08/03 01:42:12;;;;;;;1625.80;999.90;;;19.00;99.90;;;;;;4919456;29;20055;-80
2022/08/03 01:44:40;;;;;;;;;;;19.00;99.90;;;;;;4903025;29;20478;-80
2022/08/03 01:47:07;;;;;;;1721.45;999.90;;;18.90;99.90;;;;;;4919314;29;19951;-80
2022/08/03 01:49:39;;;;;;;1698.00;999.90;;;18.90;99.90;;;;;;4902542;29;20059;-81
2022/08/03 01:52:06;;;;;;;1629.10;999.90;;;18.90;99.90;;;;;;4919017;29;20140;-81
2022/08/03 01:54:36;;;;;;;1595.13;999.90;;;18.80;99.90;;;;;;4919058;29;20052;-80
2022/08/03 01:57:03;;;;;;;1620.75;999.90;;;18.80;99.90;;;;;;4919155;29;20454;-80
2022/08/03 01:59:31;;;;;;;1493.95;999.90;;;18.80;99.90;;;;;;4919000;29;20456;-81
2022/08/03 02:02:00;;;;;;;1567.72;999.90;;;18.80;99.90;;;;;;4919136;29;20052;-81
2022/08/03 02:04:27;;;;;;;1493.15;999.90;;;18.80;99.90;;;;;;4918946;29;20075;-81
2022/08/03 02:06:54;;;;;;;1619.55;999.90;;;18.80;99.90;;;;;;4918741;29;20123;-80
2022/08/03 02:09:22;;;;;;;1546.55;999.90;;;18.70;99.90;;;;;;4919134;29;20119;-81
2022/08/03 02:11:50;;;;;;;1585.18;999.90;;;18.80;1.00;;;;;;4918691;29;20063;-80
2022/08/03 02:14:18;;;;;;;1523.25;999.90;;;18.70;99.90;;;;;;4919021;29;20083;-80
2022/08/03 02:16:44;;;;;;;1493.40;999.90;;;18.70;99.90;;;;;;4901537;29;20295;-81
2022/08/03 02:19:12;;;;;;;1513.00;999.90;;;18.70;1.00;;;;;;4918887;29;20059;-80
2022/08/03 02:21:38;;;;;;;1446.97;999.90;;;18.70;99.90;;;;;;4901738;29;20056;-80
2022/08/03 02:24:05;;;;;;;1420.65;999.90;;;18.70;99.90;;;;;;4918397;29;20056;-81
2022/08/03 02:26:33;;;;;;;1382.93;999.90;;;18.70;1.00;;;;;;4901447;29;20051;-80
2022/08/03 02:29:05;;;;;;;1345.88;999.90;;;18.70;1.00;;;;;;4918915;29;20056;-80
2022/08/03 02:31:35;;;;;;;1419.15;999.90;;;18.80;49.60;;;;;;4918492;29;20115;-80
2022/08/03 02:34:07;;;;;;;1478.15;999.90;;;18.70;99.90;;;;;;4918918;29;20063;-80
2022/08/03 02:36:36;;;;;;;1404.22;999.90;;;18.70;99.90;;;;;;4901223;29;20060;-81
2022/08/03 02:39:04;;;;;;;1397.88;999.90;;;18.70;97.70;;;;;;4918195;29;20217;-81
2022/08/03 02:41:40;;;;;;;1352.18;999.90;;;18.70;99.90;;;;;;4918270;29;20079;-80
2022/08/03 02:44:11;;;;;;;1388.47;999.90;;;18.70;99.90;;;;;;4917307;29;20055;-80
2022/08/03 02:46:40;;;;;;;1374.63;999.90;;;18.70;99.90;;;;;;4918171;29;20487;-80
2022/08/03 02:49:07;;;;;;;1457.60;999.90;;;18.70;99.90;;;;;;4918279;29;20465;-80
2022/08/03 02:51:35;;;;;;;1442.05;999.90;;;18.70;99.90;;;;;;4901155;29;20075;-80
2022/08/03 02:54:02;;;;;;;1324.35;999.90;;;18.70;99.90;;;;;;4917933;29;20191;-81
2022/08/03 02:56:29;;;;;;;1338.85;999.90;;;18.70;99.90;;;;;;4885901;29;20052;-80
2022/08/03 02:58:57;;;;;;;1351.97;999.90;;;18.60;99.90;;;;;;4918163;29;20052;-81
2022/08/03 03:01:24;;;;;;;1516.75;999.90;;;18.60;99.90;;;;;;4918215;29;20048;-80
2022/08/03 03:03:52;;;;;;;1439.88;999.90;;;18.60;99.90;;;;;;4917984;29;20161;-81
2022/08/03 03:06:19;;;;;;;1402.10;999.90;;;18.60;99.90;;;;;;4901252;29;20062;-80
2022/08/03 03:08:46;;;;;;;1665.00;999.90;;;18.60;99.90;;;;;;4917344;29;20074;-80
2022/08/03 03:11:13;;;;;;;1430.63;999.90;;;18.60;99.90;;;;;;4918026;29;20056;-80
2022/08/03 03:13:43;;;;;;;1448.07;999.90;;;18.60;99.90;;;;;;4917574;29;20095;-80
2022/08/03 03:16:10;;;;;;;1532.40;999.90;;;18.60;1.00;;;;;;4917478;29;20664;-80
2022/08/03 03:18:36;;;;;;;;;;;18.60;1.00;;;;;;4901100;29;20098;-81
2022/08/03 03:21:03;;;;;;;1372.00;999.90;;;18.60;1.00;;;;;;4917781;29;19923;-80
2022/08/03 03:23:31;;;;;;;1518.43;999.90;;;18.60;1.00;;;;;;4917291;29;20102;-80
2022/08/03 03:25:57;;;;;;;1630.40;999.90;;;18.60;64.60;;;;;;4917447;29;20056;-80
2022/08/03 03:28:24;;;;;;;1545.50;999.90;;;18.60;99.90;;;;;;4917538;29;20557;-80
2022/08/03 03:30:51;;;;;;;1393.65;999.90;;;18.60;99.90;;;;;;4900630;29;20337;-81
2022/08/03 03:33:17;;;;;;;1422.73;999.90;;;18.60;99.90;;;;;;4917556;29;20048;-80
2022/08/03 03:35:45;;;;;;;1416.47;999.90;;;18.60;99.90;;;;;;4917168;29;20127;-81
2022/08/03 03:38:11;;;;;;;1476.82;999.90;;;18.60;99.90;;;;;;4885081;29;20064;-79
2022/08/03 03:40:37;;;;;;;1536.63;999.90;;;18.60;99.90;;;;;;4917146;29;20044;-81
2022/08/03 03:43:07;;;;;;;1401.53;999.90;;;18.50;99.90;;;;;;4917376;29;20521;-80
2022/08/03 03:45:34;;;;;;;1460.28;999.90;;;18.50;99.90;;;;;;4900489;29;20048;-81
2022/08/03 03:48:01;;;;;;;1521.00;999.90;;;18.60;99.90;;;;;;4917045;29;20465;-80
2022/08/03 03:50:28;;;;;;;1646.38;999.90;;;18.50;1.00;;;;;;4917046;29;20519;-80
2022/08/03 03:52:54;;;;;;;1643.22;999.90;;;18.50;1.00;;;;;;4899688;29;20047;-80
2022/08/03 03:55:20;;;;;;;1605.13;999.90;;;18.50;34.80;;;;;;4915942;29;20115;-81
2022/08/03 03:57:45;;;;;;;1652.07;999.90;;;18.60;99.90;;;;;;4916662;29;20401;-81
2022/08/03 04:00:16;;;;;;;1883.00;999.90;;;18.60;99.90;;;;;;4916917;29;20168;-80
2022/08/03 04:02:42;;;;;;;1732.38;999.90;;;18.60;99.90;;;;;;4916785;29;20048;-80
2022/08/03 04:11:12;;;;;;;1510.85;999.90;;;18.60;1.00;;;;;;4916696;29;20054;-81
2022/08/03 04:13:43;;;;;;;1642.32;999.90;;;18.60;1.00;;;;;;4916898;29;20056;-80
2022/08/03 04:16:12;;;;;;;1746.95;999.90;;;18.60;99.90;;;;;;4916900;29;20055;-80
2022/08/03 04:18:40;;;;;;;1906.15;999.90;;;18.60;99.90;;;;;;4916733;29;20056;-81
2022/08/03 04:21:09;;;;;;;1752.80;999.90;;;18.50;1.00;;;;;;4916798;29;20047;-79
2022/08/03 04:23:39;;;;;;;1781.28;999.90;;;18.60;15.30;;;;;;4915452;29;20131;-79
2022/08/03 04:26:08;;;;;;;1827.57;999.90;;;18.60;1.00;;;;;;4916880;29;20052;-80
2022/08/03 04:28:36;;;;;;;1680.55;999.90;;;18.60;1.00;;;;;;4916582;29;20044;-80
2022/08/03 04:31:03;;;;;;;1999.90;999.90;;;18.60;1.00;;;;;;4916457;29;20103;-80
2022/08/03 04:33:32;;;;;;;1844.93;999.90;;;18.60;1.00;;;;;;4916600;29;20044;-80
2022/08/03 04:35:59;;;;;;;1943.90;999.90;;;18.60;1.00;;;;;;4915137;29;20056;-80
2022/08/03 04:38:25;;;;;;;;;;;18.60;43.80;;;;;;4897753;29;20064;-80
2022/08/03 04:40:53;;;;;;;1613.05;999.90;;;18.70;99.90;;;;;;4897423;29;20289;-80
2022/08/03 04:43:21;;;;;;;1695.53;999.90;;;18.70;41.10;;;;;;4897585;29;20104;-80
2022/08/03 04:45:48;;;;;;;1907.05;999.90;;;18.60;1.00;;;;;;4897308;29;20055;-80
2022/08/03 04:48:14;;;;;;;1767.90;999.90;;;18.70;1.00;;;;;;4896411;29;20053;-80
2022/08/03 04:50:41;;;;;;;1999.90;999.90;;;18.70;27.50;;;;;;4897663;29;20105;-82
2022/08/03 04:53:07;;;;;;;1681.63;999.90;;;18.80;1.00;;;;;;4896886;29;20045;-80
2022/08/03 04:55:33;;;;;;;1859.80;999.90;;;18.80;99.90;;;;;;4880983;29;20056;-79
2022/08/03 04:58:01;;;;;;;1758.18;999.90;;;18.80;99.90;;;;;;4897060;29;20136;-80
2022/08/03 05:00:27;;;;;;;1917.90;999.90;;;18.90;99.90;;;;;;4897546;29;20053;-81
2022/08/03 05:02:54;;;;;;;1984.03;999.90;;;18.80;99.90;;;;;;4897162;29;20056;-80
2022/08/03 05:05:20;;;;;;;1852.93;999.90;;;18.90;99.90;;;;;;4865066;29;20447;-80
2022/08/03 05:07:46;;;;;;;1878.15;999.90;;;18.90;99.90;;;;;;4899355;29;20073;-81
2022/08/03 05:10:13;;;;;;;1998.78;999.90;;;18.90;99.90;;;;;;4901296;29;20048;-80
2022/08/03 05:12:39;;;;;;;1922.40;999.90;;;18.90;99.90;;;;;;4901091;29;20053;-80
2022/08/03 05:15:06;;;;;;;1998.70;999.90;;;18.90;99.90;;;;;;4900902;29;20394;-80
2022/08/03 05:17:35;;;;;;;1951.90;999.90;;;19.00;99.90;;;;;;4900789;29;20045;-80
2022/08/03 05:20:03;;;;;;;1999.90;999.90;;;19.10;99.90;;;;;;4884241;29;20060;-79
2022/08/03 05:22:28;;;;;;;1933.95;999.90;;;19.10;99.90;;;;;;4900396;29;20490;-80
2022/08/03 05:24:54;;;;;;;1741.70;999.90;;;19.10;91.40;;;;;;4900662;29;20053;-80
2022/08/03 05:27:20;;;;;;;1955.28;999.90;;;19.20;1.00;;;;;;4900884;29;20041;-80
2022/08/03 05:29:47;;;;;;;1999.90;999.90;;;19.20;1.00;;;;;;4900891;29;20045;-79
2022/08/03 05:32:13;;;;;;;1855.43;999.90;;;19.40;99.90;;;;;;4900843;29;20139;-80
2022/08/03 05:34:38;;;;;;;1860.82;999.90;;;19.40;99.90;;;;;;4900896;29;20258;-80
2022/08/03 05:37:06;;;;;;;1897.78;999.90;;;19.50;1.00;;;;;;4908483;29;20063;-80
2022/08/03 05:39:32;;;;;;;1999.90;999.90;;;19.50;1.00;;;;;;4902954;29;20120;-79
2022/08/03 05:41:58;;;;;;;1987.47;999.90;;;19.70;99.90;;;;;;4919197;29;20048;-80
2022/08/03 05:44:24;;;;;;;1981.78;999.90;;;19.70;99.90;;;;;;4919557;29;20052;-80
2022/08/03 05:46:50;;;;;;;1999.90;999.90;;;19.70;99.90;;;;;;4919069;29;20047;-80
2022/08/03 05:49:17;;;;;;;1790.55;999.90;;;19.80;1.00;;;;;;4919432;29;20052;-80
2022/08/03 05:51:42;;;;;;;1664.45;999.90;;;19.90;1.00;;;;;;4919386;29;20046;-80
2022/08/03 05:54:08;;;;;;;1999.90;999.90;;;19.90;99.90;;;;;;4917220;29;20135;-80
2022/08/03 05:56:34;;;;;;;1609.88;999.90;;;19.90;1.00;;;;;;4918831;29;20051;-80
2022/08/03 05:58:59;;;;;;;1604.30;999.90;;;19.90;99.90;;;;;;4918994;29;20044;-81
2022/08/03 06:01:25;;;;;;;1702.05;999.90;;;20.00;99.90;;;;;;4919274;29;20075;-80
2022/08/03 06:03:51;;;;;;;1502.80;999.90;;;20.00;99.90;;;;;;4918785;29;20379;-84
2022/08/03 06:06:17;;;;;;;1628.38;999.90;;;20.10;99.90;;;;;;4919148;29;20474;-81
2022/08/03 06:08:44;;;;;;;1894.97;999.90;;;20.10;99.90;;;;;;4918687;29;20051;-80
2022/08/03 06:11:10;;;;;;;1595.55;999.90;;;20.20;99.90;;;;;;4918812;29;20060;-80
2022/08/03 06:13:36;;;;;;;1882.75;999.90;;;20.30;99.90;;;;;;4917784;29;20075;-81
2022/08/03 06:16:02;;;;;;;1835.32;999.90;;;20.30;99.90;;;;;;4918613;29;20504;-80
2022/08/03 06:18:28;;;;;;;1539.88;999.90;;;20.40;99.90;;;;;;4918684;29;20055;-81
2022/08/03 06:20:54;;;;;;;1655.70;999.90;;;20.40;58.20;;;;;;4902000;29;20478;-81
2022/08/03 06:23:19;;;;;;;1478.78;999.90;;;20.50;38.70;;;;;;4901314;29;20421;-80
2022/08/03 06:25:45;;;;;;;1450.95;999.90;;;20.50;33.10;;;;;;4917951;29;20059;-80
2022/08/03 06:28:13;;;;;;;1437.80;999.90;;;20.60;1.00;;;;;;4918396;29;20044;-80
2022/08/03 06:30:40;;;;;;;1487.95;999.90;;;20.60;34.30;;;;;;4902175;29;20092;-80
2022/08/03 06:33:06;;;;;;;1529.68;999.90;;;20.70;1.00;;;;;;4901660;29;20063;-80
2022/08/03 06:35:32;;;;;;;1952.63;999.90;;;20.70;1.00;;;;;;4902008;29;20048;-80
2022/08/03 06:37:58;;;;;;;1442.43;999.90;;;20.80;1.00;;;;;;4917868;29;20096;-81
2022/08/03 06:40:30;;;;;;;1454.68;999.90;;;20.80;1.00;;;;;;4918621;29;20052;-80
2022/08/03 06:43:01;;;;;;;1517.13;999.90;;;20.90;1.00;;;;;;4918175;29;20052;-82
2022/08/03 06:45:30;;;;;;;1677.05;999.90;;;20.90;1.00;;;;;;4918526;29;20048;-80
2022/08/03 06:48:10;;;;;;;1695.47;999.90;;;21.00;99.90;;;;;;4918056;29;20110;-85
2022/08/03 06:50:40;;;;;;;1673.13;999.90;;;21.10;99.90;;;;;;4918479;29;20130;-80
2022/08/03 06:53:07;;;;;;;1609.25;999.90;;;21.10;99.90;;;;;;4917775;29;20408;-81
2022/08/03 06:55:33;;;;;;;1657.60;999.90;;;21.30;99.90;;;;;;4918296;29;20083;-80
2022/08/03 06:57:59;;;;;;;1745.35;999.90;;;21.30;99.90;;;;;;4885432;29;20052;-80
2022/08/03 07:00:25;;;;;;;1788.35;999.90;;;21.50;99.90;;;;;;4918234;29;20502;-80
2022/08/03 07:02:50;;;;;;;1918.10;999.90;;;21.60;99.90;;;;;;4916981;29;20502;-80
2022/08/03 07:05:16;;;;;;;1999.90;999.90;;;21.70;99.90;;;;;;4917807;29;20086;-80
2022/08/03 07:07:43;;;;;;;1999.90;999.90;;;21.80;99.90;;;;;;4917719;29;20052;-80
2022/08/03 07:10:10;;;;;;;1999.90;999.90;;;21.90;99.90;;;;;;4916817;29;20095;-80
2022/08/03 07:12:37;;;;;;;1999.90;999.90;;;22.60;99.90;;;;;;4917934;29;20087;-81
2022/08/03 07:15:04;;;;;;;1999.90;999.90;;;23.50;1.00;;;;;;4917636;29;20442;-81
2022/08/03 07:17:32;;;;;;;1999.90;999.90;;;24.40;1.00;;;;;;4917818;29;20111;-81
2022/08/03 07:19:58;;;;;;;1716.15;999.90;;;25.40;99.90;;;;;;4917871;29;20118;-80
2022/08/03 07:22:24;;;;;;;1014.67;912.33;;;26.50;99.90;;;;;;4917123;29;20059;-80
2022/08/03 07:24:49;;;;;;;994.13;903.78;;;27.40;99.90;;;;;;4917812;29;20048;-81
2022/08/03 07:27:15;;;;;;;1085.53;986.13;;;27.70;99.90;;;;;;4917309;29;20493;-81
2022/08/03 07:29:41;;;;;;;1102.47;991.00;;;28.70;99.90;;;;;;4916956;29;20057;-81
2022/08/03 07:32:07;;;;;;;1161.93;999.90;;;29.30;99.90;;;;;;4900476;29;20375;-81
2022/08/03 07:34:32;;;;;;;1452.68;999.90;;;28.40;99.90;;;;;;4900972;29;20056;-80
2022/08/03 07:36:58;;;;;;;1483.28;779.65;;;28.90;99.90;;;;;;4916555;29;20067;-81
2022/08/03 07:39:24;;;;;;;1693.97;860.33;;;28.80;99.90;;;;;;4917176;29;20102;-81
2022/08/03 07:41:50;;;;;;;1999.90;999.90;;;29.20;99.90;;;;;;4917291;29;20134;-81
2022/08/03 07:44:19;;;;;;;1999.90;999.90;;;29.10;99.90;;;;;;4915688;29;20489;-80
2022/08/03 07:46:45;;;;;;;1999.90;999.90;;;29.50;99.90;;;;;;4900601;29;20052;-81
2022/08/03 07:49:11;;;;;;;1999.90;999.90;;;30.10;99.90;;;;;;4917041;29;20051;-81
2022/08/03 07:51:37;;;;;;;1999.90;999.90;;;30.10;99.90;;;;;;4917276;29;20084;-80
2022/08/03 07:54:03;;;;;;;1999.90;999.90;;;30.90;95.30;;;;;;4917265;29;20474;-81
2022/08/03 07:56:29;;;;;;;1999.90;999.90;;;30.00;94.30;;;;;;4917066;29;20095;-81
2022/08/03 07:58:55;;;;;;;1999.90;999.90;;;29.10;91.30;;;;;;4917071;29;20048;-81
2022/08/03 08:01:21;;;;;;;1999.90;999.90;;;30.40;95.40;;;;;;4900162;29;20458;-80
2022/08/03 08:03:48;;;;;;;1999.90;999.90;;;30.50;85.10;;;;;;4916654;29;20573;-81
2022/08/03 08:06:14;;;;;;;1999.90;999.90;;;30.60;75.00;;;;;;4916831;29;20050;-81
2022/08/03 08:08:40;;;;;;;1999.90;999.90;;;30.60;78.30;;;;;;4899829;29;20135;-81
2022/08/03 08:11:06;;;;;;;1999.90;999.90;;;31.30;78.50;;;;;;4915903;29;20403;-87
2022/08/03 08:13:32;;;;;;;1999.90;999.90;;;31.10;58.60;;;;;;4916699;29;20055;-81
2022/08/03 08:15:58;;;;;;;1999.90;999.90;;;31.60;55.30;;;;;;4916625;29;20494;-81
2022/08/03 08:18:24;;;;;;;1999.90;999.90;;;31.50;46.60;;;;;;4899854;29;20062;-80
2022/08/03 08:20:50;;;;;;;1999.90;999.90;;;31.80;47.60;;;;;;4900194;29;20052;-80
2022/08/03 08:23:21;;;;;;;1380.15;999.90;;;32.00;33.60;;;;;;4899231;29;20048;-80
2022/08/03 08:25:48;;;;;;;1321.90;999.90;;;31.50;26.60;;;;;;4916935;29;20404;-81
2022/08/03 08:28:16;;;;;;;1196.47;996.45;;;32.00;29.40;;;;;;4916363;29;20048;-81
2022/08/03 08:30:42;;;;;;;1071.13;960.22;;;31.70;23.80;;;;;;4916722;29;20048;-81
2022/08/03 08:33:07;;;;;;;1136.30;999.70;;;32.00;29.60;;;;;;4916567;29;20042;-81
2022/08/03 08:35:33;;;;;;;1095.95;977.75;;;32.60;25.80;;;;;;4884083;29;20052;-82
2022/08/03 08:37:59;;;;;;;1021.88;919.38;;;32.90;19.20;;;;;;4898823;29;20085;-81
2022/08/03 08:40:27;;;;;;;1122.07;978.58;;;32.50;9.80;;;;;;4915311;29;20044;-81
2022/08/03 08:42:52;;;;;;;1112.68;991.33;;;32.10;5.40;;;;;;4899711;29;20056;-82
2022/08/03 08:45:19;;;;;;;1117.93;994.35;;;32.70;10.10;;;;;;4916111;29;20147;-81
2022/08/03 08:47:47;;;;;;;1073.90;959.63;;;32.40;6.20;;;;;;4916101;29;20521;-81
2022/08/03 08:50:17;;;;;;;1124.53;997.90;;;32.40;6.30;;;;;;4899423;29;20075;-82
2022/08/03 08:52:47;;;;;;;1010.55;911.63;;;33.00;8.10;;;;;;4915664;29;20632;-81
2022/08/03 08:55:20;;;;;;;1033.43;925.28;;;32.70;4.90;;;;;;4914919;29;20379;-81
2022/08/03 08:57:56;;;;;;;1040.05;933.92;;;33.30;1.00;;;;;;4916304;29;20090;-81
2022/08/03 09:00:22;;;;;;;1090.82;970.03;;;33.70;1.00;;;;;;4916182;29;20045;-81
2022/08/03 09:02:47;;;;;;;1029.93;924.20;;;33.10;1.00;;;;;;4916293;29;20087;-81
2022/08/03 09:05:15;;;;;;;995.42;896.88;;;34.00;1.00;;;;;;4916132;29;20131;-82
2022/08/03 09:07:42;;;;;;;998.35;900.92;;;33.50;1.00;;;;;;4915993;29;20049;-80
2022/08/03 09:10:10;;;;;;;996.72;897.33;;;33.90;1.00;;;;;;4915406;29;20048;-82
2022/08/03 09:12:43;;;;;;;976.67;882.40;;;34.90;1.00;;;;;;4915903;29;20052;-81
2022/08/03 09:15:25;;;;;;;964.08;869.72;;;33.90;1.00;;;;;;4916317;29;20063;-82
2022/08/03 09:17:57;;;;;;;1020.92;917.33;;;33.20;1.00;;;;;;4916070;29;20187;-82
2022/08/03 09:20:24;;;;;;;993.85;896.38;;;34.00;1.00;;;;;;4915904;29;20055;-81
2022/08/03 09:22:56;;;;;;;928.55;842.85;;;34.00;1.00;;;;;;4915736;29;20147;-82
2022/08/03 09:25:35;;;;;;;957.70;868.30;;;33.50;1.00;;;;;;4915873;29;20056;-81
2022/08/03 09:28:13;;;;;;;980.83;885.22;;;34.40;1.00;;;;;;4899074;29;20409;-82
2022/08/03 09:30:40;;;;;;;915.85;834.65;;;35.30;1.00;;;;;;4915671;29;20513;-82
2022/08/03 09:33:09;;;;;;;910.15;828.22;;;35.60;1.00;;;;;;4916043;29;20100;-82
2022/08/03 09:35:45;;;;;;;860.70;791.95;;;35.30;1.00;;;;;;4915769;29;20048;-82
2022/08/03 09:38:25;;;;;;;790.13;722.85;;;35.60;1.00;;;;;;4915638;29;20060;-81
2022/08/03 09:40:51;;;;;;;762.83;700.70;;;34.30;1.00;;;;;;4915996;29;20056;-81
2022/08/03 09:43:18;;;;;;;806.72;737.85;;;34.90;1.00;;;;;;4914776;29;20071;-85
2022/08/03 09:45:44;;;;;;;817.07;750.33;;;34.20;1.00;;;;;;4899364;29;20048;-82
2022/08/03 09:48:29;;;;;;;693.33;636.47;;;34.60;1.00;;;;;;4915890;29;20291;-82
2022/08/03 09:50:59;;;;;;;890.50;813.33;;;35.20;1.00;;;;;;4916068;29;20056;-82
2022/08/03 09:53:26;;;;;;;823.95;753.30;;;36.00;1.00;;;;;;4869329;29;20068;-82
2022/08/03 09:56:00;;;;;;;811.47;741.85;;;37.20;1.00;;;;;;4902601;29;20074;-82
2022/08/03 09:58:28;;;;;;;898.08;816.95;;;37.60;1.00;;;;;;4919150;29;20091;-81
2022/08/03 10:01:00;;;;;;;837.42;764.83;;;37.80;1.00;;;;;;4918244;29;20048;-82
2022/08/03 10:03:29;;;;;;;773.35;707.85;;;37.80;1.00;;;;;;4918865;29;20074;-82
2022/08/03 10:05:55;;;;;;;778.90;709.92;;;37.50;1.00;;;;;;4919181;29;20044;-82
2022/08/03 10:08:22;;;;;;;879.05;800.03;;;38.00;1.00;;;;;;4901730;29;20052;-82
2022/08/03 10:10:50;;;;;;;853.78;775.85;;;38.10;1.00;;;;;;4919247;29;20131;-82
2022/08/03 10:13:17;;;;;;;702.63;641.63;;;38.80;1.00;;;;;;4919040;29;20103;-82
2022/08/03 10:15:43;;;;;;;765.33;691.50;;;38.20;1.00;;;;;;4918771;29;20059;-83
2022/08/03 10:18:09;;;;;;;530.57;488.93;;;36.60;1.00;;;;;;4901952;29;20091;-82
2022/08/03 10:21:09;;;;;;;634.72;582.20;;;36.60;1.00;;;;;;4918631;29;20103;-82
2022/08/03 10:23:36;;;;;;;807.90;734.00;;;36.20;1.00;;;;;;4877175;29;20060;-82
2022/08/03 10:26:05;;;;;;;785.33;723.67;;;35.40;1.00;;;;;;4918740;29;20056;-83
2022/08/03 10:28:39;;;;;;;745.72;682.42;;;36.30;1.00;;;;;;4917275;29;20055;-82
2022/08/03 10:31:06;;;;;;;773.78;707.65;;;35.80;1.00;;;;;;4918844;29;20108;-83
2022/08/03 10:33:36;;;;;;;721.55;659.85;;;36.60;1.00;;;;;;4901653;29;20094;-82
2022/08/03 10:36:05;;;;;;;716.30;651.65;;;36.60;1.00;;;;;;4918623;29;20052;-83
2022/08/03 10:38:44;;;;;;;727.25;662.25;;;37.10;1.00;;;;;;4900661;29;20088;-82
2022/08/03 10:41:12;;;;;;;744.38;678.10;;;37.40;1.00;;;;;;4901989;29;20474;-83
2022/08/03 10:44:08;;;;;;;796.20;726.90;;;37.40;1.00;;;;;;4901407;29;20115;-82
2022/08/03 10:46:37;;;;;;;741.08;680.22;;;36.80;1.00;;;;;;4901394;29;20573;-82
2022/08/03 10:49:05;;;;;;;658.83;608.85;;;36.10;1.00;;;;;;4918407;29;20084;-83
2022/08/03 10:51:31;;;;;;;674.63;622.95;;;36.20;1.00;;;;;;4901385;29;20075;-83
2022/08/03 10:53:58;;;;;;;834.10;764.17;;;35.60;1.00;;;;;;4901248;29;20052;-82
2022/08/03 10:59:19;;;;;;;755.20;690.92;;;34.70;1.00;;;;;;4901606;29;20052;-83
2022/08/03 11:01:49;;;;;;;731.42;671.50;;;34.40;1.00;;;;;;4918003;29;20131;-83
2022/08/03 11:04:23;;;;;;;785.10;716.22;;;34.80;1.00;;;;;;4900407;29;20084;-83
2022/08/03 11:07:24;;;;;;;842.25;758.53;;;35.10;1.00;;;;;;4885380;29;20048;-84
2022/08/03 11:09:52;;;;;;;796.50;728.72;;;35.10;1.00;;;;;;4900867;29;20056;-83
2022/08/03 11:12:25;;;;;;;900.70;822.50;;;35.50;1.00;;;;;;4901347;29;20134;-83
2022/08/03 11:14:52;;;;;;;844.88;771.17;;;36.60;1.00;;;;;;4885667;29;20134;-83
2022/08/03 11:17:18;;;;;;;;;;;37.10;1.00;;;;;;4916900;29;20123;-84
2022/08/03 11:19:49;;;;;;;804.28;725.42;;;36.50;1.00;;;;;;4900890;29;20014;-83
2022/08/03 11:22:15;;;;;;;700.67;638.45;;;36.20;1.00;;;;;;4901009;29;20092;-82
2022/08/03 11:24:42;;;;;;;683.55;624.75;;;36.30;1.00;;;;;;4900590;29;20059;-83
2022/08/03 11:27:20;;;;;;;663.25;604.35;;;36.70;1.00;;;;;;4901007;29;20060;-84
2022/08/03 11:30:00;;;;;;;795.05;729.50;;;36.10;1.00;;;;;;4900807;29;20107;-83
2022/08/03 11:32:44;;;;;;;753.58;686.78;;;35.80;1.00;;;;;;4900959;29;20051;-83
2022/08/03 11:35:31;;;;;;;646.20;591.05;;;36.70;1.00;;;;;;4917700;29;20084;-83
2022/08/03 11:37:59;;;;;;;675.78;619.92;;;37.70;1.00;;;;;;4915938;29;20056;-83
2022/08/03 11:40:52;;;;;;;692.50;635.63;;;38.80;1.00;;;;;;4900618;29;20051;-83
2022/08/03 11:43:24;;;;;;;633.25;579.38;;;39.70;1.00;;;;;;4898081;29;20130;-82
2022/08/03 11:46:05;;;;;;;665.80;610.00;;;39.50;1.00;;;;;;4900467;29;20071;-84
2022/08/03 11:48:31;;;;;;;414.25;385.30;;;38.80;1.00;;;;;;4900406;29;20052;-82
2022/08/03 11:50:57;;;;;;;512.53;474.48;;;38.80;1.00;;;;;;4900791;29;20375;-83
2022/08/03 11:53:23;;;;;;;623.53;570.17;;;39.00;1.00;;;;;;4917139;29;20393;-82
2022/08/03 11:55:48;;;;;;;445.60;414.05;;;37.60;1.00;;;;;;4900091;29;20309;-83
2022/08/03 11:58:22;;;;;;;560.53;517.42;;;38.70;1.00;;;;;;4900291;29;20059;-83
2022/08/03 12:00:49;;;;;;;610.65;563.65;;;38.50;1.00;;;;;;4884644;29;20055;-83
2022/08/03 12:03:17;;;;;;;752.72;685.25;;;39.50;1.00;;;;;;4900379;29;20056;-84
2022/08/03 12:05:49;;;;;;;692.47;638.33;;;39.30;1.00;;;;;;4900067;29;20066;-83
2022/08/03 12:08:36;;;;;;;637.85;581.72;;;38.50;1.00;;;;;;4900212;29;20060;-83
2022/08/03 12:11:05;;;;;;;816.00;743.00;;;37.10;1.00;;;;;;4884392;29;20063;-85
2022/08/03 12:13:41;;;;;;;693.80;638.42;;;36.70;1.00;;;;;;4899863;29;20048;-84
2022/08/03 12:16:07;;;;;;;527.25;489.60;;;36.50;1.00;;;;;;4899654;29;20532;-83
2022/08/03 12:18:32;;;;;;;608.07;558.80;;;36.70;1.00;;;;;;4884286;29;20060;-82
2022/08/03 12:21:07;;;;;;;603.42;557.88;;;36.50;1.00;;;;;;4884703;29;20048;-84
2022/08/03 12:23:34;;;;;;;664.65;610.05;;;37.00;1.00;;;;;;4916123;29;20056;-83
2022/08/03 12:26:08;;;;;;;;;;;36.60;1.00;;;;;;4900553;29;20091;-83